Time;durP1;ratioP1;P1;durP2;ratioP2;P2;SDS_P1;SDS_P2;PMS_P1;PMS_P2;Temp;Humidity;BMP_temperature;BMP_pressure;BME280_temperature;BME280_humidity;BME280_pressure;Samples;Min_cycle;Max_cycle;Signal;HPM_P1;HPM_P2
2022/04/18 00:02:12;;;;;;;4.45;1.63;;;17.80;58.20;;;;;;4931816;29;20263;-61
2022/04/18 00:04:45;;;;;;;3.15;1.70;;;17.80;58.10;;;;;;4932514;29;20251;-61
2022/04/18 00:07:15;;;;;;;3.78;1.77;;;17.80;58.00;;;;;;4934693;29;20203;-59
2022/04/18 00:09:46;;;;;;;3.42;1.73;;;17.90;58.20;;;;;;4934012;29;20278;-62
2022/04/18 00:12:16;;;;;;;3.80;1.65;;;17.90;58.10;;;;;;4933371;29;20229;-60
2022/04/18 00:14:47;;;;;;;4.78;1.98;;;18.00;58.00;;;;;;4933260;29;20620;-61
2022/04/18 00:17:17;;;;;;;5.38;1.95;;;18.00;57.80;;;;;;4932855;29;20294;-59
2022/04/18 00:19:50;;;;;;;3.92;1.92;;;18.00;57.70;;;;;;4932215;29;20199;-62
2022/04/18 00:22:20;;;;;;;5.97;1.90;;;18.10;57.60;;;;;;4933055;29;20227;-61
2022/04/18 00:24:51;;;;;;;6.13;1.98;;;18.10;57.60;;;;;;4933116;29;20223;-59
2022/04/18 00:27:21;;;;;;;4.35;1.90;;;18.10;57.60;;;;;;4932793;29;20268;-59
2022/04/18 00:29:52;;;;;;;5.43;2.05;;;18.20;57.50;;;;;;4932609;29;20623;-61
2022/04/18 00:32:23;;;;;;;3.35;1.83;;;18.20;57.50;;;;;;4932381;29;20207;-62
2022/04/18 00:34:55;;;;;;;4.50;1.70;;;18.20;57.40;;;;;;4932488;29;20224;-60
2022/04/18 00:37:25;;;;;;;3.60;1.70;;;18.30;57.40;;;;;;4932593;29;20723;-60
2022/04/18 00:39:56;;;;;;;4.43;1.90;;;18.30;57.40;;;;;;4932642;29;20199;-57
2022/04/18 00:42:26;;;;;;;5.18;1.52;;;18.40;57.50;;;;;;4932765;29;20235;-60
2022/04/18 00:44:57;;;;;;;5.22;1.80;;;18.40;57.50;;;;;;4932802;29;20224;-62
2022/04/18 00:47:28;;;;;;;4.38;2.13;;;18.40;57.50;;;;;;4932761;29;20196;-59
2022/04/18 00:50:00;;;;;;;3.67;1.42;;;18.40;57.50;;;;;;4932223;29;20294;-61
2022/04/18 00:52:31;;;;;;;2.60;1.45;;;18.50;57.50;;;;;;4936311;29;20204;-62
2022/04/18 00:55:04;;;;;;;3.83;1.90;;;18.50;57.50;;;;;;4936340;29;20219;-60
2022/04/18 00:57:36;;;;;;;2.22;1.60;;;18.50;57.50;;;;;;4936206;29;20289;-60
2022/04/18 01:00:08;;;;;;;5.07;1.58;;;18.50;57.40;;;;;;4936202;29;20246;-60
2022/04/18 01:02:39;;;;;;;3.20;1.90;;;18.60;57.40;;;;;;4936629;29;20676;-58
2022/04/18 01:05:12;;;;;;;3.33;1.83;;;18.60;57.40;;;;;;4936136;29;20211;-62
2022/04/18 01:07:43;;;;;;;3.38;1.90;;;18.70;57.40;;;;;;4936078;29;20196;-61
2022/04/18 01:10:14;;;;;;;3.45;1.35;;;18.70;57.30;;;;;;4936007;29;20299;-59
2022/04/18 01:12:44;;;;;;;2.97;1.38;;;18.70;57.40;;;;;;4936181;29;20195;-62
2022/04/18 01:15:15;;;;;;;3.88;1.70;;;18.80;57.40;;;;;;4935952;29;20219;-63
2022/04/18 01:17:45;;;;;;;4.85;1.83;;;18.80;57.40;;;;;;4936198;29;20656;-59
2022/04/18 01:20:18;;;;;;;5.85;1.48;;;18.80;57.40;;;;;;4935752;29;20199;-62
2022/04/18 01:22:54;;;;;;;2.20;1.30;;;18.90;57.40;;;;;;4935989;29;20223;-62
2022/04/18 01:31:01;;;;;;;3.10;1.52;;;19.00;57.30;;;;;;4936326;29;20218;-59
2022/04/18 01:33:32;;;;;;;4.20;1.85;;;19.00;57.20;;;;;;4935861;29;20301;-63
2022/04/18 01:36:02;;;;;;;2.72;1.42;;;19.10;57.30;;;;;;4935440;29;20223;-59
2022/04/18 01:38:35;;;;;;;3.65;1.60;;;19.10;57.40;;;;;;4935936;29;20207;-61
2022/04/18 01:41:05;;;;;;;4.30;1.70;;;19.10;57.40;;;;;;4932789;29;20545;-60
2022/04/18 01:43:36;;;;;;;4.28;1.77;;;19.20;57.40;;;;;;4935467;29;20274;-60
2022/04/18 01:46:06;;;;;;;4.40;1.80;;;19.20;57.30;;;;;;4934777;29;20278;-61
2022/04/18 01:48:37;;;;;;;5.82;1.95;;;19.20;57.30;;;;;;4935430;29;20231;-58
2022/04/18 01:51:07;;;;;;;4.53;1.60;;;19.30;57.30;;;;;;4934107;29;20195;-60
2022/04/18 01:53:40;;;;;;;4.70;1.42;;;19.30;57.20;;;;;;4933895;29;20258;-61
2022/04/18 01:56:10;;;;;;;4.05;1.50;;;19.30;57.10;;;;;;4935161;29;20318;-60
2022/04/18 01:58:41;;;;;;;4.78;1.92;;;19.30;57.10;;;;;;4923918;29;20264;-62
2022/04/18 02:01:11;;;;;;;5.97;1.65;;;19.40;57.00;;;;;;4916433;29;20200;-64
2022/04/18 02:03:45;;;;;;;4.88;1.75;;;19.40;57.00;;;;;;4915768;29;20385;-63
2022/04/18 02:06:16;;;;;;;5.85;2.13;;;19.50;56.90;;;;;;4929979;29;20226;-63
2022/04/18 02:08:48;;;;;;;6.63;1.85;;;19.50;56.90;;;;;;4935437;29;20200;-60
2022/04/18 02:11:19;;;;;;;5.43;1.85;;;19.50;56.80;;;;;;4935306;29;20672;-64
2022/04/18 02:13:49;;;;;;;5.18;1.83;;;19.60;56.80;;;;;;4935195;29;20235;-61
2022/04/18 02:16:20;;;;;;;5.93;1.83;;;19.60;56.90;;;;;;4934998;29;20330;-62
2022/04/18 02:18:50;;;;;;;6.55;2.10;;;19.60;56.80;;;;;;4934472;29;20275;-59
2022/04/18 02:21:21;;;;;;;5.00;1.77;;;19.70;56.80;;;;;;4934296;29;20196;-62
2022/04/18 02:23:53;;;;;;;6.00;1.80;;;19.70;56.70;;;;;;4934906;29;20262;-60
2022/04/18 02:26:24;;;;;;;5.28;2.05;;;19.70;56.70;;;;;;4934752;29;20250;-63
2022/04/18 02:28:55;;;;;;;4.97;1.77;;;19.70;56.60;;;;;;4934734;29;20275;-61
2022/04/18 02:31:25;;;;;;;5.43;1.83;;;19.80;56.60;;;;;;4934620;29;20290;-58
2022/04/18 02:33:56;;;;;;;5.57;1.92;;;19.80;56.50;;;;;;4934371;29;20203;-65
2022/04/18 02:36:27;;;;;;;6.32;2.13;;;19.90;56.50;;;;;;4934194;29;20595;-63
2022/04/18 02:38:59;;;;;;;3.70;1.58;;;19.90;56.40;;;;;;4934807;29;20232;-63
2022/04/18 02:41:29;;;;;;;6.30;2.10;;;19.90;56.30;;;;;;4934560;29;20247;-64
2022/04/18 02:44:00;;;;;;;4.53;1.98;;;20.00;56.30;;;;;;4934184;29;20320;-64
2022/04/18 02:46:31;;;;;;;5.85;1.70;;;20.00;56.30;;;;;;4934059;29;20231;-61
2022/04/18 02:49:01;;;;;;;4.88;2.00;;;20.00;56.20;;;;;;4933993;29;20195;-62
2022/04/18 02:51:32;;;;;;;4.57;1.90;;;20.00;56.10;;;;;;4934119;29;20192;-62
2022/04/18 02:54:04;;;;;;;5.43;1.50;;;20.10;56.10;;;;;;4933978;29;20290;-65
2022/04/18 02:56:35;;;;;;;5.05;2.28;;;20.10;56.00;;;;;;4933797;29;20220;-62
2022/04/18 02:59:05;;;;;;;4.18;1.63;;;20.10;56.00;;;;;;4933843;29;20199;-64
2022/04/18 03:01:38;;;;;;;4.18;1.83;;;20.20;56.00;;;;;;4934294;29;20266;-65
2022/04/18 03:04:09;;;;;;;4.55;1.83;;;20.20;55.90;;;;;;4933817;29;20231;-62
2022/04/18 03:06:40;;;;;;;4.82;1.92;;;20.20;55.90;;;;;;4933719;29;20203;-59
2022/04/18 03:09:12;;;;;;;5.13;2.13;;;20.20;55.80;;;;;;4933937;29;20200;-62
2022/04/18 03:11:42;;;;;;;4.35;1.88;;;20.30;55.80;;;;;;4934201;29;20199;-64
2022/04/18 03:14:13;;;;;;;8.23;2.08;;;20.30;55.80;;;;;;4933605;29;20255;-59
2022/04/18 03:16:44;;;;;;;5.13;1.77;;;20.30;55.80;;;;;;4933689;29;20216;-64
2022/04/18 03:19:14;;;;;;;4.82;1.90;;;20.30;55.80;;;;;;4933521;29;20205;-65
2022/04/18 03:21:45;;;;;;;6.20;2.03;;;20.40;55.70;;;;;;4933539;29;20235;-62
2022/04/18 03:24:17;;;;;;;5.97;2.17;;;20.40;55.70;;;;;;4933958;29;20274;-59
2022/04/18 03:26:48;;;;;;;5.85;2.13;;;20.50;55.70;;;;;;4934088;29;20723;-63
2022/04/18 03:29:18;;;;;;;4.75;1.92;;;20.50;55.60;;;;;;4934046;29;20254;-65
2022/04/18 03:31:49;;;;;;;3.88;1.95;;;20.50;55.50;;;;;;4933202;29;20263;-66
2022/04/18 03:34:19;;;;;;;4.22;1.63;;;20.50;55.40;;;;;;4931983;29;20204;-65
2022/04/18 03:39:54;;;;;;;3.85;1.90;;;20.60;55.90;;;;;;4933783;29;20267;-66
2022/04/18 03:42:33;;;;;;;4.95;1.80;;;20.60;55.20;;;;;;4933642;29;20368;-64
2022/04/18 03:45:06;;;;;;;4.47;2.10;;;20.70;55.20;;;;;;4933126;29;20424;-65
2022/04/18 03:47:36;;;;;;;5.32;1.90;;;20.70;55.10;;;;;;4933203;29;20260;-63
2022/04/18 03:50:07;;;;;;;5.13;2.08;;;20.70;55.20;;;;;;4933382;29;20231;-63
2022/04/18 03:52:38;;;;;;;4.97;2.03;;;20.70;55.20;;;;;;4914491;29;20649;-65
2022/04/18 03:55:11;;;;;;;5.03;1.92;;;20.70;55.20;;;;;;4922107;29;20829;-64
2022/04/18 03:57:41;;;;;;;6.60;2.05;;;20.80;55.30;;;;;;4933414;29;20330;-65
2022/04/18 04:00:13;;;;;;;6.35;2.00;;;20.80;55.10;;;;;;4933418;29;20192;-65
2022/04/18 04:02:45;;;;;;;6.25;2.10;;;20.80;55.00;;;;;;4933315;29;20246;-63
2022/04/18 04:05:15;;;;;;;7.78;2.03;;;20.80;55.00;;;;;;4930543;29;20985;-63
2022/04/18 04:07:46;;;;;;;6.43;1.77;;;20.90;55.10;;;;;;4929724;29;20290;-62
2022/04/18 04:10:18;;;;;;;5.93;2.08;;;20.90;55.60;;;;;;4932490;29;20203;-64
2022/04/18 04:12:49;;;;;;;6.30;2.00;;;20.90;55.00;;;;;;4931961;29;20228;-63
2022/04/18 04:15:19;;;;;;;5.78;2.33;;;20.90;55.10;;;;;;4931136;29;20215;-64
2022/04/18 04:17:50;;;;;;;4.82;1.77;;;21.00;55.70;;;;;;4932289;29;20219;-63
2022/04/18 04:20:22;;;;;;;5.53;2.10;;;21.00;55.10;;;;;;4931919;29;20227;-60
2022/04/18 04:22:52;;;;;;;4.03;1.75;;;21.00;55.20;;;;;;4931247;29;20213;-62
2022/04/18 04:25:26;;;;;;;4.43;1.55;;;21.10;55.20;;;;;;4929203;29;20738;-62
2022/04/18 04:27:57;;;;;;;5.95;2.00;;;21.10;55.30;;;;;;4930722;29;20271;-64
2022/04/18 04:30:28;;;;;;;4.30;1.80;;;21.10;55.20;;;;;;4930625;29;20235;-62
2022/04/18 04:32:58;;;;;;;4.45;1.67;;;21.10;55.20;;;;;;4931744;29;20203;-60
2022/04/18 04:35:29;;;;;;;5.72;2.13;;;21.20;55.50;;;;;;4930953;29;20664;-63
2022/04/18 04:37:59;;;;;;;3.42;1.50;;;21.20;55.30;;;;;;4931649;29;20208;-62
2022/04/18 04:40:32;;;;;;;9.32;2.60;;;21.20;55.20;;;;;;4930346;29;20556;-62
2022/04/18 04:43:02;;;;;;;7.53;1.88;;;21.20;55.20;;;;;;4931021;29;20620;-64
2022/04/18 04:45:33;;;;;;;4.30;1.73;;;21.20;55.20;;;;;;4930812;29;20302;-61
2022/04/18 04:48:03;;;;;;;6.22;2.15;;;21.30;55.20;;;;;;4930644;29;20798;-64
2022/04/18 04:50:34;;;;;;;5.22;1.80;;;21.30;55.20;;;;;;4930744;29;20196;-61
2022/04/18 04:53:05;;;;;;;5.07;1.67;;;21.30;55.20;;;;;;4930692;29;20192;-62
2022/04/18 04:55:39;;;;;;;4.43;1.67;;;21.30;55.20;;;;;;4930647;29;20753;-64
2022/04/18 04:58:10;;;;;;;3.58;1.73;;;21.30;55.10;;;;;;4931339;29;20279;-64
2022/04/18 05:00:42;;;;;;;4.47;1.90;;;21.30;55.10;;;;;;4930958;29;20555;-63
2022/04/18 05:03:13;;;;;;;3.08;1.70;;;21.30;55.10;;;;;;4931215;29;20227;-64
2022/04/18 05:05:44;;;;;;;2.72;1.42;;;21.30;55.40;;;;;;4931242;29;20211;-61
2022/04/18 05:08:14;;;;;;;5.65;1.60;;;21.40;55.10;;;;;;4930330;29;20200;-63
2022/04/18 05:10:46;;;;;;;7.13;2.03;;;21.40;55.20;;;;;;4931004;29;20235;-61
2022/04/18 05:13:17;;;;;;;5.45;2.10;;;21.40;55.20;;;;;;4930171;29;20649;-63
2022/04/18 05:15:48;;;;;;;4.68;1.70;;;21.40;55.20;;;;;;4930760;29;20758;-60
2022/04/18 05:18:18;;;;;;;4.68;2.20;;;21.40;55.10;;;;;;4930320;29;20274;-61
2022/04/18 05:20:49;;;;;;;4.45;1.90;;;21.40;55.20;;;;;;4930334;29;20263;-63
2022/04/18 05:23:22;;;;;;;5.28;2.17;;;21.40;55.10;;;;;;4930919;29;20231;-61
2022/04/18 05:25:54;;;;;;;4.20;2.00;;;21.40;55.10;;;;;;4930315;29;20704;-64
2022/04/18 05:28:25;;;;;;;4.18;2.00;;;21.40;55.10;;;;;;4930650;29;20219;-62
2022/04/18 05:30:55;;;;;;;3.72;2.03;;;21.40;55.10;;;;;;4930163;29;20227;-61
2022/04/18 05:33:26;;;;;;;3.70;1.90;;;21.40;55.10;;;;;;4930801;29;20227;-64
2022/04/18 05:35:56;;;;;;;5.38;2.15;;;21.40;55.10;;;;;;4930172;29;20584;-62
2022/04/18 05:38:27;;;;;;;6.05;2.05;;;21.40;55.20;;;;;;4934121;29;20196;-63
2022/04/18 05:40:59;;;;;;;3.80;1.90;;;21.40;55.10;;;;;;4933410;29;20191;-64
2022/04/18 05:43:30;;;;;;;4.75;1.90;;;21.40;55.20;;;;;;4934019;29;20286;-60
2022/04/18 05:46:00;;;;;;;3.95;1.90;;;21.40;55.20;;;;;;4934515;29;20263;-61
2022/04/18 05:48:31;;;;;;;2.90;1.83;;;21.40;55.10;;;;;;4933846;29;20196;-61
2022/04/18 05:51:01;;;;;;;4.28;2.17;;;21.40;55.20;;;;;;4933440;29;20204;-59
2022/04/18 05:53:32;;;;;;;3.75;2.30;;;21.40;55.20;;;;;;4933467;29;20232;-62
2022/04/18 05:56:04;;;;;;;4.05;1.92;;;21.40;55.20;;;;;;4933876;29;20279;-62
2022/04/18 05:58:35;;;;;;;5.15;1.90;;;21.40;55.20;;;;;;4933681;29;20754;-63
2022/04/18 06:01:06;;;;;;;4.85;1.92;;;21.40;55.10;;;;;;4934061;29;20649;-65
2022/04/18 06:03:37;;;;;;;6.70;2.55;;;21.40;55.00;;;;;;4933534;29;20306;-64
2022/04/18 06:06:07;;;;;;;6.25;2.22;;;21.30;54.90;;;;;;4933737;29;20794;-67
2022/04/18 06:08:38;;;;;;;4.55;1.83;;;21.30;54.80;;;;;;4933405;29;20196;-66
2022/04/18 06:11:11;;;;;;;9.60;2.88;;;21.30;54.80;;;;;;4933925;29;20259;-66
2022/04/18 06:13:41;;;;;;;6.47;2.58;;;21.30;54.70;;;;;;4933786;29;20251;-64
2022/04/18 06:16:12;;;;;;;6.25;2.40;;;21.30;54.50;;;;;;4933699;29;20271;-65
2022/04/18 06:18:42;;;;;;;5.90;2.63;;;21.30;54.50;;;;;;4933589;29;20227;-66
2022/04/18 06:21:13;;;;;;;5.70;2.10;;;21.20;54.50;;;;;;4932994;29;20250;-65
2022/04/18 06:23:43;;;;;;;6.97;2.72;;;21.20;54.50;;;;;;4933842;29;20278;-65
2022/04/18 06:26:16;;;;;;;7.25;2.25;;;21.20;54.50;;;;;;4932758;29;20290;-63
2022/04/18 06:28:46;;;;;;;5.65;2.35;;;21.20;54.60;;;;;;4932783;29;20227;-62
2022/04/18 06:31:17;;;;;;;4.90;2.25;;;21.10;54.50;;;;;;4933160;29;20600;-65
2022/04/18 06:33:47;;;;;;;3.65;2.22;;;21.10;54.50;;;;;;4933127;29;20278;-60
2022/04/18 06:36:18;;;;;;;7.93;2.55;;;21.10;54.50;;;;;;4932687;29;20296;-65
2022/04/18 06:38:49;;;;;;;5.55;2.38;;;21.10;54.50;;;;;;4932487;29;20274;-62
2022/04/18 06:41:21;;;;;;;3.90;2.22;;;21.10;54.60;;;;;;4932696;29;20211;-66
2022/04/18 06:43:52;;;;;;;6.68;2.58;;;21.00;54.50;;;;;;4932965;29;20223;-63
2022/04/18 06:46:22;;;;;;;6.35;2.13;;;21.00;54.40;;;;;;4933204;29;20294;-63
2022/04/18 06:48:53;;;;;;;4.47;2.10;;;21.00;54.40;;;;;;4931669;29;20195;-64
2022/04/18 06:51:23;;;;;;;4.22;2.63;;;21.00;55.00;;;;;;4932647;29;20610;-64
2022/04/18 06:53:54;;;;;;;3.90;2.00;;;20.90;54.40;;;;;;4932890;29;20255;-61
2022/04/18 06:59:13;;;;;;;4.97;2.20;;;20.90;54.50;;;;;;4932536;29;20723;-61
2022/04/18 07:01:48;;;;;;;3.40;2.05;;;20.90;54.50;;;;;;4932595;29;20247;-62
2022/04/18 07:04:18;;;;;;;4.22;2.03;;;20.80;54.50;;;;;;4932169;29;20310;-62
2022/04/18 07:06:49;;;;;;;4.68;1.95;;;20.80;54.50;;;;;;4932649;29;20223;-61
2022/04/18 07:09:19;;;;;;;5.28;2.20;;;20.80;54.60;;;;;;4932680;29;20259;-61
2022/04/18 07:11:52;;;;;;;3.78;2.03;;;20.70;54.60;;;;;;4932306;29;20208;-63
2022/04/18 07:14:23;;;;;;;3.55;2.20;;;20.70;54.60;;;;;;4931939;29;20204;-64
2022/04/18 07:16:53;;;;;;;4.43;2.10;;;20.70;54.60;;;;;;4931803;29;20672;-64
2022/04/18 07:19:24;;;;;;;3.95;2.33;;;20.70;54.60;;;;;;4932033;29;20192;-64
2022/04/18 07:21:54;;;;;;;5.07;2.20;;;20.60;54.50;;;;;;4931677;29;20231;-63
2022/04/18 07:24:25;;;;;;;4.32;2.20;;;20.60;54.60;;;;;;4932404;29;20254;-63
2022/04/18 07:27:00;;;;;;;4.88;2.78;;;20.60;54.60;;;;;;4932108;29;20204;-62
2022/04/18 07:29:31;;;;;;;3.00;1.88;;;20.60;54.60;;;;;;4931560;29;20199;-64
2022/04/18 07:32:02;;;;;;;4.10;2.10;;;20.60;54.60;;;;;;4931676;29;20200;-64
2022/04/18 07:34:34;;;;;;;2.60;1.70;;;20.50;54.60;;;;;;4930987;29;20216;-63
2022/04/18 07:37:05;;;;;;;4.90;1.90;;;20.50;54.80;;;;;;4931754;29;20231;-64
2022/04/18 07:39:35;;;;;;;3.75;1.92;;;20.50;54.90;;;;;;4930572;29;20692;-64
2022/04/18 07:42:08;;;;;;;3.63;2.08;;;20.50;54.90;;;;;;4931655;29;20263;-63
2022/04/18 07:44:39;;;;;;;2.58;1.80;;;20.50;55.00;;;;;;4931642;29;20231;-64
2022/04/18 07:47:09;;;;;;;3.83;1.67;;;20.50;55.00;;;;;;4933683;29;20203;-63
2022/04/18 07:49:40;;;;;;;3.40;1.88;;;20.40;55.00;;;;;;4934646;29;20274;-64
2022/04/18 07:52:12;;;;;;;3.13;1.90;;;20.40;55.00;;;;;;4934955;29;20228;-63
2022/04/18 07:54:42;;;;;;;3.95;1.77;;;20.40;55.00;;;;;;4934481;29;20223;-64
2022/04/18 07:57:15;;;;;;;3.97;2.05;;;20.40;55.10;;;;;;4934666;29;20215;-64
2022/04/18 07:59:46;;;;;;;3.63;1.73;;;20.40;55.10;;;;;;4933889;29;20200;-64
2022/04/18 08:02:18;;;;;;;4.85;2.47;;;20.40;55.20;;;;;;4934498;29;20221;-63
2022/04/18 08:04:48;;;;;;;3.67;1.80;;;20.30;55.10;;;;;;4934491;29;20306;-64
2022/04/18 08:07:19;;;;;;;3.28;1.85;;;20.30;55.10;;;;;;4934990;29;20211;-63
2022/04/18 08:09:50;;;;;;;3.53;1.98;;;20.30;55.80;;;;;;4934657;29;20195;-64
2022/04/18 08:12:23;;;;;;;3.50;2.03;;;20.30;55.10;;;;;;4931619;29;20191;-61
2022/04/18 08:14:53;;;;;;;2.47;1.73;;;20.30;55.10;;;;;;4934583;29;20282;-62
2022/04/18 08:17:24;;;;;;;3.55;1.80;;;20.30;55.20;;;;;;4934105;29;20203;-64
2022/04/18 08:19:54;;;;;;;3.08;1.52;;;20.20;55.10;;;;;;4933580;29;20223;-62
2022/04/18 08:22:25;;;;;;;2.55;1.70;;;20.20;55.10;;;;;;4933826;29;20242;-63
2022/04/18 08:24:55;;;;;;;2.22;1.60;;;20.20;55.20;;;;;;4933700;29;20321;-63
2022/04/18 08:27:28;;;;;;;3.05;1.70;;;20.20;55.20;;;;;;4933695;29;20676;-63
2022/04/18 08:29:58;;;;;;;4.55;1.92;;;20.10;55.10;;;;;;4934074;29;20199;-63
2022/04/18 08:32:29;;;;;;;1.75;1.50;;;20.20;55.20;;;;;;4933410;29;20203;-63
2022/04/18 08:34:59;;;;;;;4.10;2.13;;;20.10;55.10;;;;;;4933845;29;20749;-63
2022/04/18 08:37:30;;;;;;;4.35;2.10;;;20.10;55.20;;;;;;4933484;29;20200;-61
2022/04/18 08:40:01;;;;;;;1.88;1.40;;;20.10;55.20;;;;;;4933801;29;20199;-64
2022/04/18 08:42:36;;;;;;;4.82;2.08;;;20.00;55.10;;;;;;4934055;29;20204;-63
2022/04/18 08:45:09;;;;;;;4.15;1.98;;;20.00;55.20;;;;;;4933736;29;20238;-63
2022/04/18 08:53:13;;;;;;;2.60;1.60;;;20.00;55.30;;;;;;4933964;29;20202;-61
2022/04/18 08:55:44;;;;;;;3.35;2.20;;;19.90;55.30;;;;;;4933739;29;20255;-62
2022/04/18 08:58:16;;;;;;;3.20;1.65;;;19.90;55.30;;;;;;4933800;29;20204;-61
2022/04/18 09:00:47;;;;;;;2.95;1.60;;;19.90;55.30;;;;;;4933693;29;20258;-63
2022/04/18 09:03:17;;;;;;;3.88;1.90;;;19.90;55.30;;;;;;4959106;23;20262;-60
2022/04/18 09:05:48;;;;;;;2.88;1.95;;;19.90;55.40;;;;;;4953039;28;20230;-59
2022/04/18 09:08:19;;;;;;;4.55;1.77;;;19.90;55.40;;;;;;4947655;28;20207;-59
2022/04/18 09:10:52;;;;;;;2.95;1.75;;;19.80;55.30;;;;;;4950073;28;20191;-59
2022/04/18 09:13:27;;;;;;;4.97;2.17;;;19.80;55.30;;;;;;4953372;28;20199;-59
2022/04/18 09:15:58;;;;;;;2.90;1.70;;;19.70;55.20;;;;;;4954298;28;20226;-59
2022/04/18 09:18:29;;;;;;;3.55;1.70;;;19.70;55.30;;;;;;4953847;28;20255;-59
2022/04/18 09:21:01;;;;;;;3.08;1.95;;;19.70;55.20;;;;;;4953588;28;20283;-59
2022/04/18 09:23:32;;;;;;;2.78;1.85;;;19.70;55.30;;;;;;4953676;28;20621;-60
2022/04/18 09:26:05;;;;;;;2.53;1.80;;;19.60;55.20;;;;;;4953725;28;20230;-59
2022/04/18 09:28:41;;;;;;;4.88;1.85;;;19.60;55.20;;;;;;4953839;28;20203;-59
2022/04/18 09:31:12;;;;;;;4.22;1.98;;;19.60;55.30;;;;;;4953247;29;20198;-59
2022/04/18 09:33:48;;;;;;;3.00;1.65;;;19.60;55.30;;;;;;4953540;28;20211;-59
2022/04/18 09:36:21;;;;;;;3.28;1.85;;;19.50;55.20;;;;;;4953172;28;20302;-59
2022/04/18 09:38:53;;;;;;;2.75;1.92;;;19.50;55.20;;;;;;4953245;28;20288;-59
2022/04/18 09:41:26;;;;;;;3.03;1.88;;;19.50;55.30;;;;;;4953380;28;20622;-59
2022/04/18 09:43:59;;;;;;;2.00;1.40;;;19.50;55.30;;;;;;4953426;28;20242;-59
2022/04/18 09:46:29;;;;;;;3.10;1.90;;;19.40;55.30;;;;;;4953381;28;20294;-58
2022/04/18 09:49:05;;;;;;;2.63;1.50;;;19.40;55.30;;;;;;4952950;28;20503;-59
2022/04/18 09:51:38;;;;;;;2.50;1.60;;;19.40;55.30;;;;;;4953272;28;20726;-59
2022/04/18 09:54:09;;;;;;;2.78;1.65;;;19.40;55.30;;;;;;4953797;28;20198;-59
2022/04/18 09:56:49;;;;;;;3.03;1.70;;;19.30;55.90;;;;;;4952551;28;20761;-59
2022/04/18 09:59:22;;;;;;;2.80;1.58;;;19.30;55.30;;;;;;4952476;28;20265;-59
2022/04/18 10:01:53;;;;;;;3.95;1.48;;;19.30;55.30;;;;;;4952200;28;20190;-60
2022/04/18 10:04:24;;;;;;;2.25;1.77;;;19.30;55.30;;;;;;4969689;23;20223;-60
2022/04/18 10:06:56;;;;;;;1.80;1.38;;;19.30;55.40;;;;;;4952905;28;20246;-58
2022/04/18 10:09:27;;;;;;;3.10;1.90;;;19.20;55.30;;;;;;4952490;28;20203;-60
2022/04/18 10:11:59;;;;;;;2.47;1.50;;;19.20;55.30;;;;;;4952248;28;20246;-61
2022/04/18 10:14:31;;;;;;;4.32;1.83;;;19.20;55.40;;;;;;4953096;28;20211;-61
2022/04/18 10:17:05;;;;;;;4.38;1.83;;;19.20;55.40;;;;;;4953165;28;20836;-60
2022/04/18 10:19:52;;;;;;;2.58;1.58;;;19.20;55.30;;;;;;4952752;28;20254;-61
2022/04/18 10:22:45;;;;;;;3.95;1.80;;;19.10;55.40;;;;;;4952781;28;20653;-63
2022/04/18 10:25:29;;;;;;;3.13;1.25;;;19.10;55.40;;;;;;4952159;28;20230;-60
2022/04/18 10:28:06;;;;;;;2.67;1.83;;;19.10;55.40;;;;;;4952580;28;20207;-61
2022/04/18 10:30:49;;;;;;;2.08;1.63;;;19.00;55.40;;;;;;4952542;28;20202;-61
2022/04/18 10:33:20;;;;;;;2.88;1.92;;;19.00;55.40;;;;;;4952825;28;20195;-61
2022/04/18 10:35:55;;;;;;;2.60;1.45;;;19.00;55.40;;;;;;4951851;28;20269;-61
2022/04/18 10:38:29;;;;;;;3.38;1.75;;;19.00;55.40;;;;;;4951759;28;20194;-61
2022/04/18 10:44:05;;;;;;;3.63;1.80;;;18.90;55.40;;;;;;4952048;28;20191;-61
2022/04/18 10:46:38;;;;;;;2.38;1.52;;;18.90;55.40;;;;;;4951938;28;20705;-61
2022/04/18 10:49:16;;;;;;;3.92;1.63;;;18.90;55.40;;;;;;4952755;28;20201;-60
2022/04/18 10:51:48;;;;;;;3.55;1.90;;;18.90;55.40;;;;;;4952547;28;20249;-59
2022/04/18 10:54:20;;;;;;;3.20;1.92;;;18.80;55.40;;;;;;4951624;28;20727;-61
2022/04/18 10:56:58;;;;;;;3.78;1.90;;;18.80;55.40;;;;;;4951888;28;20198;-60
2022/04/18 10:59:30;;;;;;;4.22;1.80;;;18.80;55.40;;;;;;4952059;28;20608;-61
2022/04/18 11:02:32;;;;;;;2.15;1.40;;;18.80;55.40;;;;;;4952243;28;20544;-60
2022/04/18 11:05:04;;;;;;;2.83;1.75;;;18.80;55.50;;;;;;4951779;28;20651;-59
2022/04/18 11:07:44;;;;;;;3.05;1.60;;;18.80;55.40;;;;;;4952938;28;20207;-61
2022/04/18 11:10:22;;;;;;;2.63;1.50;;;18.70;55.40;;;;;;4952999;28;20201;-59
2022/04/18 11:12:59;;;;;;;2.47;1.48;;;18.70;55.40;;;;;;4951698;28;20187;-60
2022/04/18 11:15:29;;;;;;;2.58;1.58;;;18.70;55.40;;;;;;4951225;28;20278;-61
2022/04/18 11:18:04;;;;;;;2.10;1.30;;;18.60;55.40;;;;;;4951424;28;20266;-60
2022/04/18 11:20:37;;;;;;;2.97;1.60;;;18.60;55.40;;;;;;4950986;28;20202;-61
2022/04/18 11:23:26;;;;;;;3.22;1.73;;;18.60;55.40;;;;;;4951279;28;20290;-60
2022/04/18 11:25:58;;;;;;;2.83;1.52;;;18.60;55.40;;;;;;4950860;28;20244;-61
2022/04/18 11:28:37;;;;;;;2.38;1.63;;;18.60;55.40;;;;;;4951392;28;20234;-60
2022/04/18 11:31:12;;;;;;;3.15;1.40;;;18.60;55.40;;;;;;4951597;28;20250;-61
2022/04/18 11:33:48;;;;;;;2.83;1.52;;;18.50;55.40;;;;;;4950479;28;20273;-61
2022/04/18 11:36:18;;;;;;;1.95;1.27;;;18.50;55.40;;;;;;4950474;28;20250;-58
2022/04/18 11:38:49;;;;;;;2.90;1.67;;;18.50;55.40;;;;;;4951088;28;20274;-60
2022/04/18 11:41:19;;;;;;;2.72;1.60;;;18.50;55.50;;;;;;4950754;28;20202;-60
2022/04/18 11:43:58;;;;;;;2.92;1.80;;;18.50;55.50;;;;;;4950898;28;20271;-58
2022/04/18 11:46:32;;;;;;;3.42;1.40;;;18.50;55.50;;;;;;4951600;28;20277;-61
2022/04/18 11:49:04;;;;;;;2.85;1.50;;;18.40;55.50;;;;;;4950941;28;20199;-61
2022/04/18 11:51:41;;;;;;;2.83;1.83;;;18.40;55.50;;;;;;4950909;28;20242;-61
2022/04/18 11:54:12;;;;;;;2.00;1.42;;;18.40;55.50;;;;;;4950671;29;20648;-60
2022/04/18 11:56:43;;;;;;;3.13;1.60;;;18.40;55.50;;;;;;4951531;28;20300;-61
2022/04/18 11:59:13;;;;;;;2.72;1.45;;;18.40;55.50;;;;;;4953645;29;20206;-59
2022/04/18 12:07:23;;;;;;;2.00;1.55;;;18.30;55.50;;;;;;4952005;28;20350;-59
2022/04/18 12:09:53;;;;;;;2.75;1.60;;;18.30;55.50;;;;;;4950149;28;20186;-60
2022/04/18 12:12:33;;;;;;;3.05;1.50;;;18.20;55.50;;;;;;4951405;28;20214;-59
2022/04/18 12:15:05;;;;;;;2.40;1.48;;;18.30;55.50;;;;;;4951892;28;20215;-59
2022/04/18 12:17:37;;;;;;;3.42;1.60;;;18.20;55.50;;;;;;4951655;28;20207;-60
2022/04/18 12:23:06;;;;;;;2.45;1.52;;;18.20;55.50;;;;;;5144382;27;20553;-59
2022/04/18 12:25:37;;;;;;;2.47;1.40;;;18.20;55.50;;;;;;5128181;27;20213;-59
2022/04/18 12:28:08;;;;;;;2.40;1.40;;;18.20;55.60;;;;;;5127636;27;20269;-59
2022/04/18 12:30:39;;;;;;;2.58;1.30;;;18.10;55.50;;;;;;5128299;27;20193;-58
2022/04/18 12:33:21;;;;;;;2.03;1.35;;;18.10;55.60;;;;;;5128730;27;20628;-57
2022/04/18 12:35:53;;;;;;;1.90;1.45;;;18.10;55.60;;;;;;5128034;27;20253;-58
2022/04/18 12:38:35;;;;;;;3.13;1.33;;;18.10;55.50;;;;;;5128078;27;20199;-59
2022/04/18 12:41:06;;;;;;;2.15;1.15;;;18.10;55.60;;;;;;5128067;27;20288;-58
2022/04/18 12:43:37;;;;;;;2.65;1.30;;;18.10;55.60;;;;;;5117554;27;20189;-58
2022/04/18 12:46:11;;;;;;;2.22;1.10;;;18.00;55.50;;;;;;5107418;28;20214;-57
2022/04/18 12:48:42;;;;;;;2.47;1.40;;;18.00;55.50;;;;;;5107623;28;20194;-57
2022/04/18 12:51:13;;;;;;;3.50;1.63;;;18.00;55.60;;;;;;5118950;28;20797;-58
2022/04/18 12:53:52;;;;;;;2.35;1.30;;;18.00;55.60;;;;;;5127841;27;20560;-58
2022/04/18 12:56:24;;;;;;;3.28;1.90;;;18.00;55.60;;;;;;5127734;27;20258;-59
2022/04/18 12:59:03;;;;;;;2.22;1.42;;;18.00;55.60;;;;;;5115644;27;20574;-58
2022/04/18 13:01:36;;;;;;;2.42;1.20;;;17.90;55.60;;;;;;5107185;28;20252;-59
2022/04/18 13:04:07;;;;;;;2.05;1.42;;;17.90;55.60;;;;;;5074775;23;20227;-60
2022/04/18 13:06:38;;;;;;;1.55;1.40;;;17.90;55.60;;;;;;5046350;28;20269;-60
2022/04/18 13:09:12;;;;;;;2.15;1.20;;;17.90;55.60;;;;;;5046557;28;20195;-60
2022/04/18 13:11:44;;;;;;;2.17;1.30;;;17.90;55.60;;;;;;5046377;28;20969;-61
2022/04/18 13:14:16;;;;;;;2.63;1.40;;;17.90;55.60;;;;;;5045448;28;20281;-59
2022/04/18 13:16:46;;;;;;;3.03;1.30;;;17.90;55.60;;;;;;5045693;28;20195;-60
2022/04/18 13:19:17;;;;;;;3.45;1.60;;;17.90;55.60;;;;;;5045726;28;20227;-60
2022/04/18 13:21:48;;;;;;;1.40;1.23;;;17.80;55.60;;;;;;5042204;28;20546;-60
2022/04/18 13:24:20;;;;;;;2.85;1.40;;;17.80;55.60;;;;;;5045175;28;20196;-60
2022/04/18 13:26:51;;;;;;;2.13;1.30;;;17.80;56.20;;;;;;5045562;28;20227;-60
2022/04/18 13:29:22;;;;;;;2.35;1.20;;;17.80;55.60;;;;;;5044780;28;20560;-60
2022/04/18 13:31:52;;;;;;;1.63;1.10;;;17.80;55.60;;;;;;5035424;28;20637;-60
2022/04/18 13:34:33;;;;;;;2.35;1.40;;;17.80;55.60;;;;;;5012367;28;20189;-60
2022/04/18 13:37:27;;;;;;;;;;;;;;;;;;;;;
2022/04/18 13:40:02;;;;;;;3.38;1.20;;;17.70;55.60;;;;;;5009563;28;20234;-60
2022/04/18 13:42:33;;;;;;;2.95;1.38;;;17.70;55.50;;;;;;5011896;28;20287;-60